Data for 12/28/2009

Time Sea-Level Adjusted Pressure Absolute Pressure Temperature Relative Humidity Dew Point   
(mb) (inHg) (mb) (inHg) (C) (F) (%) (C) (F)
00:05 1025 30.27 855 25.25 -13.1 8.4 86 -15 5
00:10 1025 30.27 855 25.25 -12.9 8.8 86 -14.8 5.4
00:15 1025 30.27 854 25.22 -12.7 9.2 83 -15 5
00:20 1025 30.27 854 25.22 -12.6 9.2 82 -15.1 4.8
00:25 1025 30.27 854 25.22 -12.9 8.7 82 -15.4 4.4
00:30 1025 30.27 854 25.22 -13.4 7.9 85 -15.4 4.3
00:35 1025 30.27 854 25.22 -13.5 7.6 88 -15.1 4.8
00:40 1025 30.27 854 25.22 -13.4 7.9 90 -14.7 5.5
00:45 1025 30.27 854 25.22 -13.1 8.4 89 -14.5 5.9
00:50 1025 30.27 855 25.25 -13.1 8.4 90 -14.4 6
00:55 1025 30.27 855 25.25 -13 8.5 89 -14.4 6
01:00 1025 30.27 855 25.25 -13 8.5 88 -14.6 5.7
01:05 1025 30.27 855 25.25 -13.1 8.4 88 -14.7 5.6
01:10 1025 30.27 855 25.25 -13.2 8.3 89 -14.6 5.7
01:15 1025 30.27 855 25.25 -13.2 8.3 89 -14.6 5.8
01:20 1025 30.27 855 25.25 -13.2 8.3 87 -14.8 5.3
01:25 1025 30.27 855 25.25 -13.2 8.2 86 -15 4.9
01:30 1025 30.27 855 25.25 -13.3 8 89 -14.8 5.4
01:35 1025 30.27 855 25.25 -13.2 8.3 92 -14.3 6.3
01:40 1025 30.27 855 25.25 -12.9 8.7 92 -14 6.9
01:45 1025 30.27 855 25.25 -12.8 9.1 89 -14.3 6.3
01:50 1025 30.27 855 25.25 -13 8.5 88 -14.6 5.7
01:55 1026 30.3 855 25.25 -13 8.7 90 -14.3 6.3
02:00 1025 30.27 855 25.25 -12.9 8.8 88 -14.6 5.8
02:05 1025 30.27 855 25.25 -13.4 7.9 86 -15.2 4.6
02:10 1025 30.27 855 25.25 -13.8 7.1 86 -15.6 3.8
02:15 1025 30.27 855 25.25 -13.9 7 87 -15.7 3.8
02:20 1026 30.3 855 25.25 -13.6 7.6 86 -15.4 4.3
02:25 1026 30.3 855 25.25 -13.5 7.6 88 -15.1 4.8
02:30 1026 30.3 855 25.25 -13.5 7.6 89 -15 5
02:35 1026 30.3 855 25.25 -13.3 8 93 -14.2 6.5
02:40 1026 30.3 855 25.25 -12.2 10 87 -13.9 7
02:45 1026 30.3 855 25.25 -11.8 10.9 79 -14.7 5.6
02:50 1026 30.3 855 25.25 -12.9 8.7 82 -15.3 4.4
02:55 1026 30.3 855 25.25 -13.2 8.2 85 -15.3 4.5
03:00 1026 30.3 855 25.25 -13 8.7 90 -14.2 6.4
03:05 1026 30.3 855 25.25 -12.7 9.1 85 -14.7 5.5
03:10 1026 30.3 855 25.25 -13.2 8.2 87 -14.9 5.1
03:15 1026 30.3 855 25.25 -13.3 8.1 91 -14.5 5.9
03:20 1026 30.3 855 25.25 -12.9 8.8 90 -14.3 6.3
03:25 1026 30.3 855 25.25 -12.9 8.8 92 -14 6.8
03:30 1026 30.3 855 25.25 -12.4 9.6 86 -14.4 6.1
03:35 1026 30.3 855 25.25 -13 8.7 91 -14.2 6.5
03:40 1026 30.3 855 25.25 -12.9 8.8 87 -14.7 5.6
03:45 1026 30.3 855 25.25 -13.4 7.9 84 -15.5 4.1
03:50 1026 30.3 855 25.25 -13.6 7.6 84 -15.7 3.7
03:55 1026 30.3 855 25.25 -13.3 8 84 -15.5 4.1
04:00 1026 30.3 855 25.25 -13.1 8.5 85 -15 4.9
04:05 1026 30.3 855 25.25 -12.7 9.1 82 -15.2 4.6
04:10 1026 30.3 855 25.25 -13.2 8.2 85 -15.3 4.5
04:15 1026 30.3 855 25.25 -13.7 7.4 86 -15.5 4
04:20 1025 30.27 855 25.25 -13.6 7.4 89 -15 4.9
04:25 1025 30.27 855 25.25 -13.3 8 89 -14.8 5.4
04:30 1025 30.27 855 25.25 -12.9 8.8 87 -14.6 5.8
04:35 1025 30.27 855 25.25 -12.2 10.1 84 -14.3 6.3
04:40 1026 30.3 855 25.25 -11.8 10.7 82 -14.3 6.3
04:45 1026 30.3 855 25.25 -11.9 10.5 82 -14.4 6.1
04:50 1026 30.3 855 25.25 -11.6 11 80 -14.4 6.1
04:55 1026 30.3 855 25.25 -11.6 11.2 78 -14.7 5.6
05:00 1026 30.3 855 25.25 -11.7 11 78 -14.7 5.5
05:05 1026 30.3 855 25.25 -11.9 10.7 78 -14.9 5.1
05:10 1026 30.3 855 25.25 -12.1 10.3 79 -15 5
05:15 1026 30.3 855 25.25 -12.4 9.7 78 -15.5 4.1
05:20 1026 30.3 855 25.25 -13.6 7.5 83 -16 3.3
05:25 1026 30.3 855 25.25 -14.3 6.2 84 -16.4 2.5
05:30 1026 30.3 855 25.25 -14 6.7 86 -15.8 3.5
05:35 1026 30.3 855 25.25 -13.2 8.3 82 -15.6 3.9
05:40 1026 30.3 855 25.25 -13.5 7.7 86 -15.4 4.3
05:45 1026 30.3 855 25.25 -13.5 7.6 87 -15.2 4.6
05:50 1026 30.3 855 25.25 -13.5 7.7 85 -15.4 4.2
05:55 1026 30.3 855 25.25 -13.4 7.8 86 -15.3 4.5
06:00 1026 30.3 855 25.25 -13.1 8.5 84 -15.3 4.5
06:05 1026 30.3 855 25.25 -13.1 8.5 83 -15.4 4.2
06:10 1026 30.3 855 25.25 -13.3 8.1 88 -14.9 5.2
06:15 1026 30.3 855 25.25 -12.8 9 83 -15 4.9
06:20 1026 30.3 855 25.25 -13.2 8.3 84 -15.3 4.4
06:25 1026 30.3 855 25.25 -13.3 8.1 84 -15.4 4.3
06:30 1026 30.3 855 25.25 -13.4 7.8 85 -15.4 4.3
06:35 1026 30.3 855 25.25 -13.7 7.3 86 -15.5 4.1
06:40 1026 30.3 855 25.25 -13.8 7.2 86 -15.7 3.8
06:45 1026 30.3 855 25.25 -13.9 6.9 86 -15.8 3.5
06:50 1026 30.3 855 25.25 -14 6.7 86 -15.8 3.5
06:55 1026 30.3 855 25.25 -14.2 6.5 87 -15.8 3.5
07:00 1026 30.3 855 25.25 -14.1 6.7 87 -15.9 3.5
07:05 1026 30.3 855 25.25 -14 6.8 86 -15.9 3.4
07:10 1026 30.3 855 25.25 -14 6.8 86 -15.9 3.3
07:15 1026 30.3 855 25.25 -14 6.8 85 -16 3.1
07:20 1026 30.3 855 25.25 -13.9 6.9 86 -15.9 3.5
07:25 1026 30.3 855 25.25 -14 6.8 86 -15.9 3.4
07:30 1026 30.3 855 25.25 -14.1 6.7 84 -16.2 2.9
07:35 1025 30.27 855 25.25 -14.2 6.5 82 -16.6 2.2
07:40 1025 30.27 855 25.25 -14.3 6.3 83 -16.5 2.2
07:45 1025 30.27 855 25.25 -14.1 6.6 83 -16.5 2.4
07:50 1025 30.27 855 25.25 -14 6.7 83 -16.3 2.6
07:55 1025 30.27 855 25.25 -13.8 7.3 81 -16.3 2.6
08:00 1025 30.27 855 25.25 -13.9 7 81 -16.4 2.5
08:05 1025 30.27 855 25.25 -13.9 6.9 81 -16.5 2.3
08:10 1025 30.27 855 25.25 -13.6 7.4 81 -16.2 2.8
08:15 1025 30.27 855 25.25 -13.6 7.5 80 -16.3 2.7
08:20 1025 30.27 855 25.25 -13.6 7.5 80 -16.4 2.5
08:25 1025 30.27 855 25.25 -13.5 7.7 80 -16.2 2.8
08:30 1025 30.27 855 25.25 -13.1 8.5 80 -15.8 3.5
08:35 1025 30.27 855 25.25 -12.7 9.1 81 -15.3 4.5
08:40 1025 30.27 855 25.25 -12.1 10.3 80 -14.9 5.3
08:45 1025 30.27 855 25.25 -11.8 10.9 79 -14.7 5.5
08:50 1026 30.3 855 25.25 -11.8 10.7 79 -14.8 5.3
08:55 1026 30.3 855 25.25 -12.1 10.2 81 -14.7 5.5
09:00 1026 30.3 855 25.25 -11.7 10.9 74 -15.5 4.1
09:05 1026 30.3 855 25.25 -11.8 10.9 78 -14.9 5.2
09:10 1026 30.3 855 25.25 -11.8 10.8 76 -15.2 4.6
09:15 1025 30.27 855 25.25 -11.8 10.8 76 -15.2 4.7
09:20 1025 30.27 855 25.25 -12.3 9.9 78 -15.4 4.4
09:25 1025 30.27 855 25.25 -12 10.5 76 -15.4 4.2
09:30 1025 30.27 855 25.25 -12.5 9.4 76 -15.9 3.4
09:35 1025 30.27 855 25.25 -12.8 9 77 -16.1 3
09:40 1025 30.27 854 25.22 -12.6 9.4 77 -15.9 3.5
09:45 1025 30.27 854 25.22 -11.9 10.7 74 -15.5 4.1
09:50 1025 30.27 854 25.22 -11.1 12.1 73 -14.9 5.1
09:55 1025 30.27 854 25.22 -10.2 13.6 70 -14.8 5.4
10:00 1025 30.27 854 25.22 -10.1 13.8 70 -14.6 5.8
10:05 1025 30.27 854 25.22 -10 14 70 -14.5 5.8
10:10 1025 30.27 854 25.22 -10.4 13.4 74 -14.2 6.5
10:15 1025 30.27 854 25.22 -10.3 13.6 72 -14.4 6.1
10:20 1025 30.27 854 25.22 -10 14.1 71 -14.3 6.2
10:25 1025 30.27 854 25.22 -10.1 13.9 71 -14.3 6.2
10:30 1025 30.27 854 25.22 -9.5 15 68 -14.3 6.3
10:35 1025 30.27 854 25.22 -8.6 16.4 65 -14.2 6.5
10:40 1025 30.27 854 25.22 -7.9 17.7 63 -13.7 7.3
10:45 1025 30.27 854 25.22 -8.2 17.3 64 -13.8 7.2
10:50 1025 30.27 854 25.22 -7.8 17.9 63 -13.7 7.4
10:55 1025 30.27 854 25.22 -7.5 18.5 62 -13.6 7.5
11:00 1025 30.27 854 25.22 -7.7 18.1 64 -13.3 8
11:05 1025 30.27 854 25.22 -8.3 17 67 -13.4 7.9
11:10 1025 30.27 854 25.22 -8.6 16.5 68 -13.6 7.5
11:15 1025 30.27 854 25.22 -8.5 16.8 67 -13.5 7.7
11:20 1025 30.27 854 25.22 -8.5 16.7 68 -13.5 7.7
11:25 1025 30.27 854 25.22 -8.5 16.7 67 -13.6 7.5
11:30 1025 30.27 854 25.22 -8.5 16.8 67 -13.5 7.6
11:35 1025 30.27 854 25.22 -8.3 17.2 68 -13.2 8.3
11:40 1025 30.27 854 25.22 -8.4 17 66 -13.6 7.4
11:45 1024 30.24 854 25.22 -8.2 17.3 66 -13.4 7.8
11:50 1024 30.24 853 25.19 -7.7 18.1 64 -13.4 7.8
11:55 1024 30.24 853 25.19 -7 19.4 61 -13.3 8.1
12:00 1024 30.24 853 25.19 -6.9 19.5 61 -13.3 8.1
12:05 1024 30.24 853 25.19 -7.6 18.4 64 -13.3 8.1
12:10 1024 30.24 853 25.19 -7.7 18.2 63 -13.5 7.8
12:15 1024 30.24 853 25.19 -6.8 19.8 60 -13.4 7.9
12:20 1024 30.24 853 25.19 -5.8 21.5 58 -12.9 8.7
12:25 1024 30.24 853 25.19 -5.4 22.3 56 -12.7 9.1
12:30 1024 30.24 853 25.19 -5.6 21.9 59 -12.5 9.5
12:35 1024 30.24 853 25.19 -6.1 21.1 58 -13.1 8.4
12:40 1024 30.24 853 25.19 -6.2 20.8 60 -12.8 8.9
12:45 1024 30.24 853 25.19 -6.4 20.5 61 -12.6 9.2
12:50 1024 30.24 853 25.19 -6.4 20.5 59 -13.1 8.4
12:55 1023 30.21 853 25.19 -6.1 21.1 58 -13 8.6
13:00 1023 30.21 853 25.19 -5.5 22.2 56 -12.9 8.8
13:05 1023 30.21 853 25.19 -5.2 22.6 57 -12.4 9.6
13:10 1023 30.21 852 25.16 -5.1 22.9 55 -12.8 8.9
13:15 1023 30.21 852 25.16 -5.3 22.5 57 -12.5 9.4
13:20 1023 30.21 852 25.16 -5.2 22.7 57 -12.5 9.5
13:25 1023 30.21 852 25.16 -5.9 21.4 59 -12.8 9
13:30 1023 30.21 852 25.16 -6 21.1 59 -12.9 8.8
13:35 1023 30.21 852 25.16 -6.5 20.3 61 -12.8 8.9
13:40 1023 30.21 852 25.16 -6.4 20.4 59 -13.2 8.2
13:45 1023 30.21 852 25.16 -5.6 22 56 -12.9 8.7
13:50 1023 30.21 852 25.16 -5 23.1 53 -13.1 8.5
13:55 1023 30.21 852 25.16 -5.3 22.4 56 -12.9 8.8
14:00 1022 30.18 852 25.16 -5.2 22.6 56 -12.8 9
14:05 1022 30.18 852 25.16 -5.3 22.5 57 -12.5 9.5
14:10 1022 30.18 851 25.13 -5 23 53 -13.1 8.5
14:15 1022 30.18 851 25.13 -5.2 22.6 56 -12.7 9.1
14:20 1022 30.18 851 25.13 -5.8 21.5 57 -13 8.6
14:25 1022 30.18 851 25.13 -5.5 22.1 53 -13.6 7.5
14:30 1022 30.18 851 25.13 -4.7 23.5 52 -13.2 8.3
14:35 1022 30.18 851 25.13 -4.4 24.1 52 -12.7 9.1
14:40 1022 30.18 851 25.13 -5.1 22.8 54 -13 8.6
14:45 1022 30.18 851 25.13 -4.7 23.6 52 -13.1 8.3
14:50 1022 30.18 851 25.13 -3.7 25.4 51 -12.5 9.5
14:55 1022 30.18 851 25.13 -4.2 24.5 54 -12.1 10.2
15:00 1022 30.18 851 25.13 -3.9 25 51 -12.5 9.5
15:05 1022 30.18 851 25.13 -3.9 25 53 -12.2 10
15:10 1022 30.18 851 25.13 -4.3 24.2 54 -12.3 9.9
15:15 1022 30.18 851 25.13 -4.3 24.2 54 -12.4 9.7
15:20 1022 30.18 851 25.13 -4.7 23.5 55 -12.5 9.4
15:25 1022 30.18 851 25.13 -4.7 23.5 55 -12.5 9.4
15:30 1022 30.18 851 25.13 -4.7 23.5 55 -12.4 9.7
15:35 1022 30.18 851 25.13 -4.9 23.3 55 -12.6 9.2
15:40 1022 30.18 851 25.13 -5 23.1 56 -12.5 9.4
15:45 1022 30.18 851 25.13 -5 22.9 56 -12.6 9.4
15:50 1022 30.18 851 25.13 -5.3 22.5 57 -12.6 9.4
15:55 1022 30.18 851 25.13 -5.4 22.4 56 -12.9 8.8
16:00 1022 30.18 851 25.13 -5.7 21.8 59 -12.6 9.4
16:05 1022 30.18 851 25.13 -5.9 21.3 58 -12.9 8.8
16:10 1022 30.18 851 25.13 -5.8 21.6 57 -12.9 8.7
16:15 1022 30.18 851 25.13 -5.6 21.8 58 -12.7 9.1
16:20 1022 30.18 851 25.13 -5.8 21.6 59 -12.6 9.3
16:25 1022 30.18 851 25.13 -6.1 21 60 -12.7 9.2
16:30 1022 30.18 851 25.13 -6.3 20.6 61 -12.7 9.2
16:35 1022 30.18 851 25.13 -6.5 20.3 61 -12.8 8.9
16:40 1022 30.18 851 25.13 -6.8 19.8 63 -12.8 9
16:45 1022 30.18 851 25.13 -7.1 19.2 63 -13 8.6
16:50 1022 30.18 851 25.13 -7.2 19 64 -12.9 8.8
16:55 1022 30.18 851 25.13 -7.3 18.9 64 -12.9 8.8
17:00 1022 30.18 851 25.13 -7.8 17.9 67 -12.9 8.8
17:05 1022 30.18 851 25.13 -8.4 16.8 70 -13 8.6
17:10 1022 30.18 851 25.13 -8.8 16.3 70 -13.2 8.2
17:15 1022 30.18 851 25.13 -9.2 15.4 72 -13.5 7.7
17:20 1022 30.18 851 25.13 -9.4 15.1 74 -13.2 8.2
17:25 1021 30.15 851 25.13 -9.1 15.6 73 -13.2 8.3
17:30 1021 30.15 851 25.13 -9.2 15.5 74 -13 8.6